Time;durP1;ratioP1;P1;durP2;ratioP2;P2;SDS_P1;SDS_P2;PMS_P1;PMS_P2;Temp;Humidity;BMP_temperature;BMP_pressure;BME280_temperature;BME280_humidity;BME280_pressure;Samples;Min_cycle;Max_cycle;Signal;HPM_P1;HPM_P2
2023/09/19 00:00:20;;;;;;;2.28;0.90;;;16.50;99.90;;;16.27;100.00;96842.72;5046808;28;20123;-40
2023/09/19 00:02:53;;;;;;;1.02;0.77;;;16.50;99.90;;;16.29;100.00;96862.09;5050272;28;20115;-39
2023/09/19 00:05:19;;;;;;;1.17;0.75;;;16.50;99.90;;;16.28;100.00;96857.75;5047935;28;20443;-39
2023/09/19 00:07:44;;;;;;;2.13;1.00;;;16.50;99.90;;;16.26;100.00;96862.31;5050387;28;20048;-39
2023/09/19 00:10:10;;;;;;;1.83;0.85;;;16.40;99.90;;;16.23;100.00;96866.03;5052988;28;20021;-39
2023/09/19 00:12:36;;;;;;;1.85;0.80;;;16.40;99.90;;;16.24;100.00;96889.03;5049236;28;20044;-39
2023/09/19 00:15:05;;;;;;;2.38;1.10;;;16.40;99.90;;;16.23;100.00;96888.16;5047174;28;20120;-40
2023/09/19 00:17:31;;;;;;;3.58;0.90;;;16.40;99.90;;;16.26;100.00;96883.59;5049550;28;20457;-40
2023/09/19 00:19:57;;;;;;;1.88;0.95;;;16.40;99.90;;;16.29;100.00;96884.22;5050427;28;20052;-41
2023/09/19 00:22:26;;;;;;;3.20;0.70;;;16.50;99.90;;;16.29;100.00;96894.03;5052001;28;20024;-39
2023/09/19 00:24:52;;;;;;;2.28;0.90;;;16.50;99.90;;;16.29;100.00;96900.19;5047694;28;20040;-40
2023/09/19 00:27:18;;;;;;;0.95;0.70;;;16.50;99.90;;;16.30;100.00;96893.09;5050128;28;20380;-39
2023/09/19 00:29:44;;;;;;;1.88;0.73;;;16.50;99.90;;;16.28;100.00;96893.19;5049939;28;20037;-40
2023/09/19 00:32:09;;;;;;;1.30;0.70;;;16.50;99.90;;;16.30;100.00;96895.75;5045306;28;20029;-39
2023/09/19 00:34:35;;;;;;;2.33;0.90;;;16.50;99.90;;;16.31;100.00;96889.44;5045125;28;20519;-39
2023/09/19 00:37:01;;;;;;;1.35;0.90;;;16.50;99.90;;;16.29;100.00;96900.19;5050115;28;20033;-40
2023/09/19 00:39:31;;;;;;;1.73;1.00;;;16.50;99.90;;;16.27;100.00;96895.94;5050473;28;20107;-37
2023/09/19 00:41:57;;;;;;;6.57;1.00;;;16.40;99.90;;;16.23;100.00;96898.81;5047230;28;20032;-38
2023/09/19 00:44:23;;;;;;;1.33;0.80;;;16.40;99.90;;;16.17;100.00;96895.72;5046635;28;20032;-37
2023/09/19 00:46:50;;;;;;;2.22;1.08;;;16.40;99.90;;;16.11;100.00;96885.50;5044497;28;20033;-37
2023/09/19 00:49:16;;;;;;;2.33;0.80;;;16.40;99.90;;;16.19;100.00;96904.47;5047662;28;20039;-38
2023/09/19 00:51:46;;;;;;;1.13;0.85;;;16.40;99.90;;;16.15;100.00;96901.16;5036843;28;20058;-37
2023/09/19 00:54:17;;;;;;;1.90;0.75;;;16.40;99.90;;;16.15;100.00;96909.13;5049128;28;20036;-37
2023/09/19 00:56:45;;;;;;;1.08;0.80;;;16.30;99.90;;;16.12;100.00;96908.50;5048675;28;20485;-37
2023/09/19 00:59:11;;;;;;;1.15;0.80;;;16.30;99.90;;;16.13;100.00;96916.38;5047013;28;20117;-37
2023/09/19 01:01:39;;;;;;;2.42;0.80;;;16.30;99.90;;;16.11;100.00;96914.75;5044401;28;20467;-38
2023/09/19 01:04:06;;;;;;;2.38;0.85;;;16.30;99.90;;;16.11;100.00;96917.41;5046690;28;20051;-37
2023/09/19 01:06:32;;;;;;;1.52;0.88;;;16.30;99.90;;;16.06;100.00;96908.88;5046897;28;20048;-38
2023/09/19 01:08:58;;;;;;;1.60;0.68;;;16.30;99.90;;;16.07;100.00;96916.75;5049499;28;20076;-37
2023/09/19 01:11:39;;;;;;;1.65;0.70;;;16.30;99.90;;;16.06;100.00;96923.06;5042324;28;20123;-36
2023/09/19 01:14:41;;;;;;;0.95;0.70;;;16.20;99.90;;;15.97;100.00;96905.91;5044474;28;20264;-37
2023/09/19 01:17:19;;;;;;;1.38;0.70;;;16.20;99.90;;;16.03;100.00;96921.44;5037188;28;20048;-37
2023/09/19 01:20:18;;;;;;;2.25;0.82;;;16.20;99.90;;;16.01;100.00;96918.03;5045758;28;20040;-38
2023/09/19 01:26:34;;;;;;;1.65;0.63;;;16.20;99.90;;;16.05;100.00;96924.00;5027671;28;20067;-38
2023/09/19 01:29:57;;;;;;;2.83;0.65;;;16.20;99.90;;;16.01;100.00;96930.47;5042856;28;20035;-37
2023/09/19 01:32:24;;;;;;;1.55;0.80;;;16.20;99.90;;;16.00;100.00;96940.25;5026991;28;20099;-37
2023/09/19 01:35:03;;;;;;;1.17;0.55;;;16.20;99.90;;;15.99;100.00;96935.91;5047461;28;20055;-36
2023/09/19 01:37:28;;;;;;;1.48;0.50;;;16.20;99.90;;;15.98;100.00;96933.34;5047279;28;20106;-37
2023/09/19 01:40:17;;;;;;;2.35;0.90;;;16.20;99.90;;;15.97;100.00;96942.25;5048357;28;20029;-38
2023/09/19 01:43:14;;;;;;;1.88;0.90;;;16.10;99.90;;;15.93;100.00;96932.78;5043222;28;20370;-37
2023/09/19 01:46:01;;;;;;;2.50;0.70;;;16.10;99.90;;;15.92;100.00;96931.94;5043044;28;20024;-38
2023/09/19 01:48:42;;;;;;;2.63;1.08;;;16.10;99.90;;;15.90;100.00;96933.84;5048149;28;20090;-38
2023/09/19 01:51:11;;;;;;;1.35;0.75;;;16.10;99.90;;;15.89;100.00;96931.28;5044766;28;20658;-36
2023/09/19 01:53:55;;;;;;;1.73;0.60;;;16.10;99.90;;;15.87;100.00;96935.84;5064735;28;20699;-37
2023/09/19 01:56:53;;;;;;;1.73;0.75;;;16.10;99.90;;;15.86;100.00;96940.31;5044295;28;20035;-38
2023/09/19 01:59:31;;;;;;;1.05;0.60;;;16.00;99.90;;;15.86;100.00;96942.97;5049197;28;20033;-37
2023/09/19 02:01:57;;;;;;;2.08;0.88;;;16.00;99.90;;;15.84;100.00;96953.72;5041111;28;20507;-36
2023/09/19 02:04:23;;;;;;;1.85;0.70;;;16.00;99.90;;;15.79;100.00;96955.81;5048831;28;20032;-37
2023/09/19 02:06:49;;;;;;;1.05;0.70;;;16.00;99.90;;;15.75;100.00;96948.13;5044909;28;20024;-37
2023/09/19 02:09:15;;;;;;;1.73;1.00;;;16.00;99.90;;;15.72;100.00;96954.47;5046117;28;20085;-38
2023/09/19 02:11:41;;;;;;;1.55;0.68;;;15.90;99.90;;;15.64;100.00;96949.63;5039537;28;20488;-36
2023/09/19 02:14:08;;;;;;;1.02;0.50;;;15.90;99.90;;;15.49;100.00;96934.69;5046750;28;20145;-39
2023/09/19 02:16:37;;;;;;;1.05;0.70;;;15.80;99.90;;;15.51;100.00;96958.53;5047365;28;20675;-37
2023/09/19 02:19:05;;;;;;;0.73;0.55;;;15.70;99.90;;;15.42;100.00;96957.28;5042930;28;20044;-38
2023/09/19 02:21:31;;;;;;;1.52;0.57;;;15.60;99.90;;;15.38;100.00;96959.28;5046179;28;20444;-38
2023/09/19 02:23:58;;;;;;;1.23;0.70;;;15.60;99.90;;;15.32;100.00;96967.63;5044918;28;20175;-38
2023/09/19 02:26:24;;;;;;;3.05;0.80;;;15.50;99.90;;;15.23;100.00;96952.28;5043873;28;20025;-36
2023/09/19 02:28:50;;;;;;;1.50;0.60;;;15.50;99.90;;;15.28;100.00;96966.13;5026575;28;20033;-36
2023/09/19 02:31:16;;;;;;;1.35;0.88;;;15.40;99.90;;;15.23;100.00;96965.56;5041639;28;20040;-37
2023/09/19 02:33:43;;;;;;;2.35;0.80;;;15.40;99.90;;;15.17;100.00;96974.78;5045511;28;20559;-38
2023/09/19 02:36:09;;;;;;;3.53;0.73;;;15.40;99.90;;;15.00;100.00;96943.09;5046798;28;20493;-38
2023/09/19 02:38:35;;;;;;;1.70;0.77;;;15.30;99.90;;;14.98;100.00;96963.56;5041626;28;20028;-37
2023/09/19 02:41:01;;;;;;;2.88;0.80;;;15.20;99.90;;;15.02;100.00;96976.59;5046640;28;20603;-37
2023/09/19 02:43:27;;;;;;;0.85;0.60;;;15.20;99.90;;;14.86;100.00;96960.72;5044078;28;20397;-37
2023/09/19 02:45:54;;;;;;;0.82;0.70;;;15.20;99.90;;;14.95;100.00;96982.34;5044539;28;20056;-37
2023/09/19 02:48:20;;;;;;;4.32;0.70;;;15.10;99.90;;;14.92;100.00;96980.75;5042348;28;20194;-38
2023/09/19 02:50:49;;;;;;;0.80;0.70;;;15.10;99.90;;;14.89;100.00;96989.75;5042025;28;20116;-38
2023/09/19 02:53:14;;;;;;;1.40;0.80;;;15.10;99.90;;;14.95;100.00;96993.84;5045354;28;20116;-37
2023/09/19 02:55:40;;;;;;;1.42;0.85;;;15.20;99.90;;;14.99;100.00;96991.84;5045326;28;20045;-38
2023/09/19 02:58:14;;;;;;;0.75;0.60;;;15.20;99.90;;;14.99;100.00;96983.88;5044344;28;20400;-39
2023/09/19 03:00:41;;;;;;;2.33;0.90;;;15.20;99.90;;;15.08;100.00;96994.78;5045866;28;20119;-36
2023/09/19 03:03:08;;;;;;;1.73;0.85;;;15.30;99.90;;;15.17;100.00;96995.19;5046942;28;20028;-37
2023/09/19 03:05:34;;;;;;;2.13;1.15;;;15.40;99.90;;;15.25;100.00;96992.88;5047373;28;20028;-38
2023/09/19 03:08:01;;;;;;;1.58;0.90;;;15.50;99.90;;;15.33;100.00;96995.09;5041738;28;20037;-37
2023/09/19 03:10:27;;;;;;;1.60;0.73;;;15.50;99.90;;;15.41;100.00;96995.44;5044346;28;20068;-38
2023/09/19 03:12:53;;;;;;;1.02;0.70;;;15.60;99.90;;;15.45;100.00;96997.81;5043641;28;20036;-36
2023/09/19 03:15:19;;;;;;;0.88;0.60;;;15.70;99.90;;;15.51;100.00;96991.25;5047909;28;20032;-37
2023/09/19 03:17:47;;;;;;;1.58;0.70;;;15.70;99.90;;;15.55;100.00;96994.56;5039118;28;20073;-37
2023/09/19 03:20:16;;;;;;;1.33;0.55;;;15.80;99.90;;;15.59;100.00;96999.56;5050195;28;20492;-37
2023/09/19 03:22:42;;;;;;;1.33;0.70;;;15.80;99.90;;;15.62;100.00;97003.88;5043950;28;20036;-37
2023/09/19 03:25:08;;;;;;;3.78;0.60;;;15.80;99.90;;;15.63;100.00;96997.56;5047529;28;20102;-38
2023/09/19 03:27:40;;;;;;;1.70;0.93;;;15.80;99.90;;;15.65;100.00;96990.38;5042268;28;20041;-37
2023/09/19 03:30:08;;;;;;;0.50;0.50;;;15.90;99.90;;;15.66;100.00;96998.22;5043330;28;20024;-38
2023/09/19 03:32:37;;;;;;;2.45;0.80;;;15.90;99.90;;;15.70;100.00;97004.22;5044901;28;20500;-36
2023/09/19 03:35:05;;;;;;;2.03;0.80;;;15.90;99.90;;;15.68;100.00;96999.94;5049834;28;20060;-37
2023/09/19 03:37:32;;;;;;;1.58;0.70;;;15.90;99.90;;;15.72;100.00;96996.13;5040275;28;20048;-37
2023/09/19 03:39:58;;;;;;;3.22;0.75;;;16.00;99.90;;;15.74;100.00;96999.53;5044655;28;20844;-38
2023/09/19 03:42:26;;;;;;;1.17;0.80;;;16.00;99.90;;;15.76;100.00;96995.88;5049906;28;20063;-38
2023/09/19 03:44:52;;;;;;;1.17;0.75;;;16.00;99.90;;;15.82;100.00;96995.47;5048080;28;20098;-38
2023/09/19 03:47:21;;;;;;;1.85;0.80;;;16.00;99.90;;;15.79;100.00;96986.84;5048152;28;20523;-37
2023/09/19 03:49:47;;;;;;;2.75;0.60;;;16.00;99.90;;;15.78;100.00;96987.81;5048841;28;20165;-38
2023/09/19 03:52:13;;;;;;;1.38;0.70;;;16.00;99.90;;;15.81;100.00;96992.94;5051762;28;20476;-37
2023/09/19 03:54:41;;;;;;;4.13;0.82;;;16.00;99.90;;;15.82;100.00;96990.16;5041469;28;20031;-38
2023/09/19 03:57:07;;;;;;;0.98;0.68;;;16.00;99.90;;;15.83;100.00;96988.38;5041880;28;20040;-37
2023/09/19 03:59:32;;;;;;;1.33;0.80;;;16.00;99.90;;;15.87;100.00;96992.53;5049368;28;20060;-36
2023/09/19 04:01:59;;;;;;;1.08;0.80;;;16.10;99.90;;;15.88;100.00;97004.03;5042335;28;20044;-37
2023/09/19 04:04:25;;;;;;;1.33;0.90;;;16.10;99.90;;;15.88;100.00;97012.00;5049786;28;20025;-38
2023/09/19 04:06:51;;;;;;;1.90;0.90;;;16.10;99.90;;;15.88;100.00;97004.91;5041611;28;20484;-37
2023/09/19 04:09:17;;;;;;;0.88;0.55;;;16.10;99.90;;;15.88;100.00;97012.00;5048354;28;20040;-37
2023/09/19 04:11:42;;;;;;;1.77;0.70;;;16.10;99.90;;;15.88;100.00;97004.91;5045550;28;20021;-38
2023/09/19 04:14:08;;;;;;;1.08;0.70;;;16.10;99.90;;;15.86;100.00;97000.63;5049381;28;20477;-36
2023/09/19 04:16:34;;;;;;;3.95;0.80;;;16.10;99.90;;;15.78;100.00;97001.97;5047367;28;20085;-38
2023/09/19 04:18:59;;;;;;;2.17;0.80;;;16.00;99.90;;;15.74;100.00;96999.53;5046469;28;20056;-37
2023/09/19 04:21:26;;;;;;;1.90;0.90;;;16.00;99.90;;;15.77;100.00;97007.38;5045712;28;20057;-37
2023/09/19 04:23:52;;;;;;;1.27;0.80;;;16.00;99.90;;;15.76;100.00;97008.34;5046219;28;20277;-36
2023/09/19 04:26:18;;;;;;;1.38;0.73;;;16.00;99.90;;;15.75;100.00;97011.94;5047868;28;20393;-37
2023/09/19 04:28:43;;;;;;;1.55;0.90;;;15.90;99.90;;;15.73;100.00;97013.81;5044146;28;20028;-38
2023/09/19 04:31:11;;;;;;;0.95;0.80;;;16.00;99.90;;;15.64;100.00;97007.28;5038575;28;20491;-36
2023/09/19 04:33:37;;;;;;;0.88;0.80;;;16.00;99.90;;;15.73;100.00;97014.66;5045727;28;20040;-38
2023/09/19 04:36:05;;;;;;;2.28;0.82;;;16.00;99.90;;;15.75;100.00;97017.25;5048828;28;20037;-37
2023/09/19 04:38:31;;;;;;;0.88;0.65;;;16.00;99.90;;;15.76;100.00;97011.00;5049238;28;20274;-37
2023/09/19 04:40:59;;;;;;;0.85;0.70;;;16.00;99.90;;;15.76;100.00;97017.16;5042313;28;20252;-37
2023/09/19 04:43:26;;;;;;;1.00;0.80;;;16.00;99.90;;;15.76;100.00;97008.34;5046472;28;20048;-37
2023/09/19 04:45:55;;;;;;;1.33;0.80;;;16.00;99.90;;;15.78;100.00;97017.06;5040750;28;20128;-37
2023/09/19 04:48:24;;;;;;;1.70;0.93;;;16.00;99.90;;;15.80;100.00;97025.78;5048380;28;20021;-35
2023/09/19 04:50:50;;;;;;;0.98;0.70;;;16.00;99.90;;;15.81;100.00;97028.34;5039549;28;20508;-36
2023/09/19 04:53:18;;;;;;;1.88;0.80;;;16.00;99.90;;;15.83;100.00;97033.59;5050729;28;20550;-37
2023/09/19 04:55:44;;;;;;;2.80;0.80;;;16.00;99.90;;;15.84;100.00;97036.16;5038537;28;20482;-37
2023/09/19 04:58:10;;;;;;;1.15;0.73;;;16.00;99.90;;;15.84;100.00;97046.78;5046713;28;20020;-37
2023/09/19 05:00:36;;;;;;;1.20;0.85;;;16.00;99.90;;;15.83;100.00;97050.38;5037169;28;20032;-37
2023/09/19 05:03:04;;;;;;;1.90;1.00;;;16.00;99.90;;;15.76;100.00;97049.06;5042600;28;20603;-37
2023/09/19 05:05:29;;;;;;;3.03;1.48;;;16.00;99.90;;;15.63;100.00;97037.44;5051048;28;20031;-37
2023/09/19 05:07:55;;;;;;;6.15;1.50;;;15.90;99.90;;;15.57;100.00;97040.50;5051411;28;20032;-36
2023/09/19 05:10:21;;;;;;;4.03;1.10;;;15.90;99.90;;;15.58;100.00;97059.00;5047947;28;20040;-37
2023/09/19 05:12:48;;;;;;;0.70;0.70;;;15.80;99.90;;;15.53;100.00;97055.78;5047549;28;20260;-37
2023/09/19 05:15:17;;;;;;;1.45;1.00;;;15.70;99.90;;;15.47;100.00;97053.53;5046620;28;20036;-37
2023/09/19 05:17:54;;;;;;;3.10;0.98;;;15.70;99.90;;;15.46;100.00;97055.31;5043897;28;20036;-36
2023/09/19 05:20:30;;;;;;;2.10;1.08;;;15.70;99.90;;;15.45;100.00;97060.72;5050405;28;20449;-37
2023/09/19 05:23:05;;;;;;;2.15;1.10;;;15.60;99.90;;;15.42;100.00;97063.59;5049103;28;20056;-37
2023/09/19 05:25:39;;;;;;;1.00;0.80;;;15.60;99.90;;;15.43;100.00;97067.94;5049679;28;20373;-37
2023/09/19 05:28:11;;;;;;;1.23;0.90;;;15.60;99.90;;;15.41;100.00;97060.06;5049431;28;20021;-39
2023/09/19 05:30:42;;;;;;;2.30;1.10;;;15.70;99.90;;;15.45;100.00;97079.31;5050237;28;20033;-36
2023/09/19 05:33:08;;;;;;;1.95;1.10;;;15.70;99.90;;;15.38;100.00;97075.31;5055267;28;20094;-36
2023/09/19 05:35:37;;;;;;;2.55;1.00;;;15.70;99.90;;;15.46;100.00;97102.28;5048702;28;20040;-37
2023/09/19 05:38:05;;;;;;;4.65;1.38;;;15.70;99.90;;;15.44;100.00;97088.25;5051155;28;20442;-36
2023/09/19 05:40:31;;;;;;;2.03;1.30;;;15.70;99.90;;;15.40;100.00;97092.06;5053209;28;20021;-36
2023/09/19 05:42:57;;;;;;;1.67;1.10;;;15.60;99.90;;;15.28;100.00;97097.16;5048024;28;20036;-37
2023/09/19 05:45:23;;;;;;;5.35;1.50;;;15.60;99.90;;;15.21;100.00;97098.47;5050133;28;20070;-37
2023/09/19 05:47:50;;;;;;;6.35;1.73;;;15.40;99.90;;;15.17;100.00;97110.22;5050775;28;20016;-37
2023/09/19 05:50:18;;;;;;;5.10;1.98;;;15.40;99.90;;;14.94;100.00;97094.81;5050825;28;20028;-36
2023/09/19 05:52:52;;;;;;;8.65;2.15;;;15.30;99.90;;;15.00;100.00;97113.03;5047807;28;20032;-39
2023/09/19 05:55:18;;;;;;;4.90;1.75;;;15.20;99.90;;;14.99;100.00;97120.16;5055040;28;20499;-40
2023/09/19 05:57:50;;;;;;;6.10;2.30;;;15.20;99.90;;;14.99;100.00;97121.97;5048394;28;20516;-37
2023/09/19 06:00:17;;;;;;;4.40;1.48;;;15.20;99.90;;;14.97;100.00;97130.00;5052508;28;20033;-36
2023/09/19 06:02:44;;;;;;;4.80;1.60;;;15.20;99.90;;;14.92;100.00;97131.22;5049017;28;20425;-36
2023/09/19 06:05:10;;;;;;;2.72;1.52;;;15.20;99.90;;;14.95;100.00;97139.00;5052495;28;20023;-36
2023/09/19 06:07:37;;;;;;;8.02;2.30;;;15.20;99.90;;;14.94;100.00;97132.84;5048557;28;20573;-38
2023/09/19 06:10:08;;;;;;;4.65;1.70;;;15.20;99.90;;;14.91;100.00;97132.16;5053481;28;20027;-37
2023/09/19 06:12:38;;;;;;;4.93;1.40;;;15.20;99.90;;;14.75;100.00;97117.16;5048760;28;20392;-37
2023/09/19 06:15:06;;;;;;;3.10;1.40;;;15.10;99.90;;;14.88;100.00;97144.69;5049978;28;20029;-37
2023/09/19 06:17:31;;;;;;;2.55;1.30;;;15.10;99.90;;;14.76;100.00;97136.59;5050229;28;20052;-37
2023/09/19 06:19:57;;;;;;;2.45;1.45;;;15.10;99.90;;;14.74;100.00;97149.94;5048912;28;20123;-37
2023/09/19 06:22:24;;;;;;;2.25;1.23;;;15.00;99.90;;;14.59;100.00;97138.41;5049177;28;20075;-39
2023/09/19 06:24:50;;;;;;;3.35;1.40;;;14.90;99.90;;;14.62;100.00;97138.22;5046860;28;20629;-36
2023/09/19 06:27:16;;;;;;;4.75;1.60;;;14.90;99.90;;;14.65;100.00;97135.38;5049360;28;20039;-36
2023/09/19 06:29:41;;;;;;;4.40;1.52;;;14.90;99.90;;;14.66;100.00;97137.13;5050257;28;20029;-38
2023/09/19 06:32:10;;;;;;;5.28;1.50;;;14.90;99.90;;;14.65;100.00;97122.13;5054501;28;20040;-37
2023/09/19 06:34:38;;;;;;;2.35;1.40;;;14.90;99.90;;;14.75;100.00;97135.72;5050815;28;20136;-39
2023/09/19 06:37:06;;;;;;;2.72;1.50;;;15.00;99.90;;;14.90;100.00;97149.91;5049002;28;20040;-36
2023/09/19 06:39:31;;;;;;;2.92;1.80;;;15.10;99.90;;;14.99;100.00;97146.72;5052830;28;20456;-36
2023/09/19 06:41:58;;;;;;;3.42;1.50;;;15.10;99.90;;;15.01;100.00;97150.13;5052059;28;20035;-37
2023/09/19 06:44:24;;;;;;;2.70;1.40;;;15.20;99.90;;;14.89;100.00;97156.16;5053182;28;20021;-37
2023/09/19 06:46:51;;;;;;;4.57;1.55;;;15.10;99.90;;;14.90;100.00;97152.56;5047730;28;20340;-36
2023/09/19 06:49:17;;;;;;;3.17;1.58;;;15.10;99.90;;;15.00;100.00;97151.09;5052090;28;20056;-35
2023/09/19 06:51:44;;;;;;;4.60;1.38;;;15.20;99.90;;;14.87;100.00;97153.56;5048399;28;20047;-37
2023/09/19 06:54:10;;;;;;;2.60;1.70;;;15.10;99.90;;;15.01;100.00;97155.44;5053728;28;20024;-36
2023/09/19 06:56:36;;;;;;;2.83;1.80;;;15.20;99.90;;;15.08;100.00;97161.25;5048989;28;20124;-38
2023/09/19 06:59:03;;;;;;;6.70;1.65;;;15.30;99.90;;;15.13;100.00;97160.97;5050673;28;20029;-36
2023/09/19 07:01:29;;;;;;;5.05;1.98;;;15.40;99.90;;;15.23;100.00;97152.34;5046631;28;20048;-37
2023/09/19 07:03:55;;;;;;;4.80;1.60;;;15.50;99.90;;;15.31;100.00;97169.63;5047416;28;20017;-36
2023/09/19 07:06:21;;;;;;;4.07;1.65;;;15.60;99.90;;;15.34;100.00;97172.97;5051119;28;20020;-37
2023/09/19 07:08:46;;;;;;;3.20;1.13;;;15.60;99.90;;;15.46;100.00;97184.69;5048807;28;20047;-36
2023/09/19 07:11:12;;;;;;;2.72;1.33;;;15.70;99.90;;;15.49;100.00;97184.50;5047495;28;20033;-37
2023/09/19 07:13:39;;;;;;;3.83;1.50;;;15.70;99.90;;;15.55;100.00;97194.75;5047585;28;20044;-37
2023/09/19 07:16:04;;;;;;;3.58;1.40;;;15.80;99.90;;;15.51;100.00;97189.72;5052884;28;20416;-36
2023/09/19 07:18:31;;;;;;;3.85;1.50;;;15.80;99.90;;;15.59;100.00;97195.41;5055318;28;20147;-37
2023/09/19 07:21:04;;;;;;;3.03;1.50;;;15.80;99.90;;;15.57;100.00;97189.34;5055017;28;20028;-36
2023/09/19 07:23:34;;;;;;;4.40;1.77;;;15.90;99.90;;;15.63;100.00;97205.78;5055105;28;20036;-37
2023/09/19 07:26:05;;;;;;;3.25;1.70;;;15.90;99.90;;;15.68;100.00;97208.16;5054284;28;20081;-38
2023/09/19 07:28:31;;;;;;;1.85;1.10;;;15.90;99.90;;;15.76;100.00;97205.06;5054907;28;20032;-36
2023/09/19 07:30:57;;;;;;;4.15;1.95;;;16.00;99.90;;;15.78;100.00;97205.84;5043557;28;20048;-37
2023/09/19 07:33:26;;;;;;;7.25;1.50;;;16.00;99.90;;;15.73;100.00;97205.22;5055048;28;20041;-36
2023/09/19 07:35:52;;;;;;;3.08;1.42;;;16.00;99.90;;;15.78;100.00;97203.19;5056586;28;20124;-36
2023/09/19 07:38:18;;;;;;;5.20;1.33;;;16.10;99.90;;;15.79;100.00;97207.53;5055248;28;20377;-38
2023/09/19 07:40:44;;;;;;;3.00;1.40;;;16.10;99.90;;;15.83;100.00;97207.25;5045558;28;20540;-36
2023/09/19 07:43:09;;;;;;;4.43;1.40;;;16.10;99.90;;;15.92;100.00;97212.97;5052955;28;20032;-36
2023/09/19 07:45:36;;;;;;;3.55;1.50;;;16.10;99.90;;;15.95;100.00;97220.75;5051938;28;20480;-37
2023/09/19 07:48:04;;;;;;;4.18;1.92;;;16.20;99.90;;;15.94;100.00;97221.72;5057219;28;20905;-37
2023/09/19 07:50:30;;;;;;;2.55;1.10;;;16.20;99.90;;;15.96;100.00;97217.16;5052005;28;20106;-36
2023/09/19 07:52:56;;;;;;;4.57;1.50;;;16.20;99.90;;;15.98;100.00;97221.41;5050951;28;20492;-37
2023/09/19 07:55:25;;;;;;;3.35;1.40;;;16.20;99.90;;;16.00;100.00;97230.13;5054658;28;20211;-36
2023/09/19 07:57:54;;;;;;;2.05;1.10;;;16.20;99.90;;;16.02;100.00;97225.63;5052076;28;20029;-36
2023/09/19 08:00:20;;;;;;;2.10;1.40;;;16.20;99.90;;;16.06;100.00;97230.72;5052740;28;20083;-36
2023/09/19 08:02:47;;;;;;;2.40;1.40;;;16.30;99.90;;;16.06;100.00;97225.41;5050655;28;20426;-37
2023/09/19 08:05:16;;;;;;;2.30;1.30;;;16.30;99.90;;;16.17;100.00;97238.91;5049146;28;20020;-37
2023/09/19 08:07:45;;;;;;;2.45;1.15;;;16.40;99.90;;;16.26;100.00;97235.66;5052471;28;20041;-36
2023/09/19 08:10:15;;;;;;;3.38;1.30;;;16.50;99.90;;;16.37;100.00;97241.16;5052862;28;20021;-37
2023/09/19 08:12:48;;;;;;;2.78;1.30;;;16.60;99.90;;;16.49;100.00;97247.53;5053044;28;20078;-37
2023/09/19 08:15:14;;;;;;;3.42;1.48;;;16.70;99.90;;;16.65;100.00;97243.88;5051217;28;20025;-36
2023/09/19 08:17:40;;;;;;;4.57;1.38;;;16.80;99.90;;;16.68;100.00;97246.34;5053280;28;20036;-38
2023/09/19 08:20:07;;;;;;;2.17;1.27;;;16.90;99.90;;;16.78;100.00;97244.81;5053488;28;20033;-37
2023/09/19 08:22:33;;;;;;;2.92;1.35;;;17.00;99.90;;;16.91;100.00;97252.91;5049162;28;20119;-37
2023/09/19 08:24:59;;;;;;;1.73;1.15;;;17.10;99.90;;;17.03;100.00;97251.22;5054147;28;20142;-37
2023/09/19 08:27:27;;;;;;;2.45;1.38;;;17.20;99.90;;;17.11;100.00;97252.44;5050950;28;20020;-37
2023/09/19 08:29:53;;;;;;;2.78;1.40;;;17.30;99.90;;;17.08;100.00;97247.31;5040484;28;20294;-37
2023/09/19 08:32:24;;;;;;;2.22;1.20;;;17.40;99.90;;;17.20;100.00;97253.66;5054786;28;20052;-36
2023/09/19 08:34:50;;;;;;;3.55;1.33;;;17.40;99.90;;;17.33;100.00;97245.69;5052527;28;20025;-36
2023/09/19 08:37:18;;;;;;;2.72;1.35;;;17.50;99.90;;;17.49;100.00;97256.19;5053873;28;20072;-37
2023/09/19 08:39:44;;;;;;;1.63;1.10;;;17.60;99.90;;;17.63;100.00;97249.91;5046769;28;20037;-38
2023/09/19 08:42:11;;;;;;;1.63;1.00;;;17.80;99.90;;;17.66;100.00;97253.25;5050350;28;20032;-36
2023/09/19 08:44:40;;;;;;;1.52;1.10;;;17.80;99.90;;;17.72;100.00;97252.81;5050352;28;20049;-37
2023/09/19 08:47:16;;;;;;;2.92;1.20;;;17.90;99.90;;;17.76;100.00;97258.78;5048773;28;20492;-37
2023/09/19 08:50:00;;;;;;;1.60;0.90;;;17.90;99.90;;;17.66;100.00;97261.22;5049614;28;20063;-37
2023/09/19 08:52:35;;;;;;;6.80;1.23;;;17.90;99.90;;;17.63;100.00;97266.78;5050515;28;20043;-37
2023/09/19 08:55:10;;;;;;;1.80;1.10;;;17.90;99.90;;;17.54;100.00;97257.56;5049338;28;20050;-37
2023/09/19 08:57:41;;;;;;;2.22;1.35;;;17.80;99.90;;;17.59;100.00;97257.28;5052718;28;20032;-37
2023/09/19 09:00:10;;;;;;;1.67;1.05;;;17.80;99.90;;;17.52;100.00;97247.97;5050841;28;20032;-38
2023/09/19 09:02:40;;;;;;;2.78;1.20;;;17.90;99.90;;;17.54;100.00;97251.41;5052878;28;20028;-37
2023/09/19 09:05:09;;;;;;;1.92;1.00;;;17.90;99.90;;;17.63;100.00;97253.44;5050488;28;20032;-37
2023/09/19 09:07:36;;;;;;;2.00;1.10;;;17.90;99.90;;;17.78;100.00;97267.53;5052337;28;20119;-37
2023/09/19 09:10:03;;;;;;;2.22;1.15;;;18.00;99.90;;;17.89;100.00;97262.38;5076085;28;20304;-36
2023/09/19 09:12:30;;;;;;;1.73;1.00;;;18.10;99.90;;;17.99;100.00;97267.91;5049906;28;20051;-37
2023/09/19 09:14:57;;;;;;;2.65;1.20;;;18.20;99.90;;;18.08;100.00;97243.25;5051900;28;20968;-37
2023/09/19 09:17:25;;;;;;;2.00;1.27;;;18.30;99.90;;;18.36;100.00;97267.16;5050203;28;20867;-36
2023/09/19 09:19:54;;;;;;;2.22;1.20;;;18.50;99.90;;;18.60;100.00;97270.75;5051107;28;20040;-37
2023/09/19 09:22:21;;;;;;;1.85;1.10;;;18.70;99.90;;;18.84;100.00;97265.50;5051889;28;20512;-37
2023/09/19 09:25:04;;;;;;;2.70;1.20;;;19.00;99.90;;;19.04;100.00;97281.88;5048738;28;22850;-38
2023/09/19 09:27:32;;;;;;;3.58;0.90;;;19.30;99.90;;;19.13;100.00;97283.03;5044782;28;20025;-37
2023/09/19 09:29:58;;;;;;;4.32;1.45;;;19.30;99.90;;;19.37;100.00;97281.22;5049608;28;20036;-36
2023/09/19 09:32:36;;;;;;;3.22;1.10;;;19.60;99.90;;;19.19;100.00;97267.41;5049440;28;20167;-37
2023/09/19 09:35:09;;;;;;;3.28;1.10;;;19.60;99.90;;;19.04;100.00;97265.84;5048536;28;20037;-36
2023/09/19 09:37:38;;;;;;;3.15;1.35;;;19.50;99.90;;;18.99;100.00;97284.91;5050804;28;20051;-36
2023/09/19 09:40:19;;;;;;;4.47;1.40;;;19.30;99.90;;;19.02;100.00;97273.13;5048504;28;20037;-37
2023/09/19 09:42:52;;;;;;;4.25;1.40;;;19.30;99.90;;;19.10;100.00;97273.44;5051503;28;20116;-39
2023/09/19 09:48:14;;;;;;;1.35;0.93;;;19.50;99.90;;;19.10;100.00;97272.59;5051755;28;20226;-37
2023/09/19 09:53:32;;;;;;;3.17;1.13;;;19.40;99.90;;;19.39;100.00;97270.41;5051350;28;20496;-40
2023/09/19 09:56:06;;;;;;;3.60;1.00;;;19.60;99.90;;;19.71;100.00;97269.81;5050050;28;20098;-40
2023/09/19 09:58:55;;;;;;;1.75;1.10;;;19.90;99.90;;;19.92;94.61;97281.59;5052011;28;20041;-38
2023/09/19 10:01:26;;;;;;;2.58;1.20;;;20.20;99.90;;;20.13;91.00;97283.56;5047659;28;20039;-38
2023/09/19 10:03:58;;;;;;;1.77;1.20;;;20.40;99.90;;;20.01;89.58;97278.19;5051612;28;20218;-38
2023/09/19 10:06:27;;;;;;;2.08;1.20;;;20.50;99.90;;;20.13;83.55;97283.56;5051829;28;20032;-40
2023/09/19 10:09:13;;;;;;;2.30;1.20;;;20.50;99.90;;;20.16;91.53;97277.97;5048465;28;20036;-39
2023/09/19 10:11:45;;;;;;;4.13;1.23;;;20.50;99.90;;;20.02;76.54;97279.03;5050393;28;20439;-39
2023/09/19 10:14:14;;;;;;;2.95;1.08;;;20.40;99.90;;;20.08;81.99;97286.59;5051989;28;20370;-39
2023/09/19 10:16:47;;;;;;;2.38;1.20;;;20.30;99.90;;;19.97;90.59;97275.84;5050379;28;20037;-38
2023/09/19 10:19:30;;;;;;;1.90;0.95;;;20.30;99.90;;;19.72;76.89;97276.84;5046037;28;20523;-38
2023/09/19 10:21:57;;;;;;;1.48;0.93;;;20.10;99.90;;;19.42;76.87;97276.38;5048969;28;20051;-38
2023/09/19 10:24:24;;;;;;;3.22;1.55;;;19.80;99.90;;;19.27;79.02;97274.84;5052049;28;20036;-39
2023/09/19 10:26:51;;;;;;;4.53;1.85;;;19.60;99.90;;;19.10;83.06;97267.25;5049460;28;20036;-38
2023/09/19 10:29:19;;;;;;;1.92;1.10;;;19.40;99.90;;;18.96;95.13;97258.41;5049204;28;20551;-38